Terminal Aerodrome Forecast
Issued by NWS

Home | Current Version | Previous Version | Text Only | Print | Product List | Glossary Off
Versions: 1 2 3 4 5 6 7 8 9 10 11 12 13 14 15 16 17 18 19 20

000
FTUS43 KMPX 270246 AAA
TAFRNH
TAF AMD
KRNH 270246Z 2703/2724 32006KT P6SM VCSH SCT008 BKN110
     FM270600 32006KT 4SM BR VCSH SCT008 BKN080
     FM270900 25006KT 3SM BR SCT015 BKN110
     FM271300 26008KT P6SM SCT060=

USA.gov is the U.S. government's official web portal to all federal, state and local government web resources and services.